createdAt,value
2023-05-21T00:02:20.979Z,2.60
2023-05-21T00:04:47.742Z,2.30
2023-05-21T00:07:15.443Z,2.00
2023-05-21T00:09:42.070Z,2.05
2023-05-21T00:12:09.342Z,2.00
2023-05-21T00:14:36.220Z,2.15
2023-05-21T00:17:03.157Z,2.10
2023-05-21T00:19:29.898Z,2.10
2023-05-21T00:21:57.674Z,2.47
2023-05-21T00:24:24.226Z,2.30
2023-05-21T00:26:51.009Z,3.00
2023-05-21T00:29:17.480Z,2.40
2023-05-21T00:31:44.040Z,2.40
2023-05-21T00:34:10.677Z,2.30
2023-05-21T00:36:37.258Z,2.27
2023-05-21T00:39:06.963Z,3.03
2023-05-21T00:41:35.354Z,2.40
2023-05-21T00:44:05.526Z,2.88
2023-05-21T00:46:32.469Z,2.45
2023-05-21T00:48:59.247Z,2.70
2023-05-21T00:51:30.182Z,2.30
2023-05-21T00:53:57.894Z,2.33
2023-05-21T00:56:27.164Z,2.30
2023-05-21T00:58:56.057Z,2.70
2023-05-21T01:01:27.478Z,2.40
2023-05-21T01:03:57.523Z,2.40
2023-05-21T01:06:24.074Z,2.58
2023-05-21T01:08:50.987Z,2.80
2023-05-21T01:11:18.937Z,2.60
2023-05-21T01:13:47.578Z,2.90
2023-05-21T01:16:14.266Z,2.47
2023-05-21T01:18:43.468Z,2.67
2023-05-21T01:21:10.375Z,2.55
2023-05-21T01:23:37.133Z,2.90
2023-05-21T01:26:03.662Z,2.50
2023-05-21T01:28:30.158Z,2.95
2023-05-21T01:30:59.670Z,2.83
2023-05-21T01:33:36.242Z,2.47
2023-05-21T01:36:13.928Z,3.03
2023-05-21T01:38:51.256Z,2.97
2023-05-21T01:41:19.891Z,2.78
2023-05-21T01:43:47.428Z,2.70
2023-05-21T01:46:19.882Z,3.30
2023-05-21T01:48:47.626Z,3.05
2023-05-21T01:51:14.774Z,3.57
2023-05-21T01:53:41.496Z,3.20
2023-05-21T01:56:08.377Z,3.70
2023-05-21T01:58:34.894Z,3.10
2023-05-21T02:01:02.796Z,3.30
2023-05-21T02:03:31.085Z,2.97
2023-05-21T02:05:57.927Z,3.10
2023-05-21T02:08:25.557Z,3.28
2023-05-21T02:10:52.214Z,3.13
2023-05-21T02:13:24.074Z,2.90
2023-05-21T02:15:54.777Z,3.50
2023-05-21T02:18:21.940Z,3.20
2023-05-21T02:20:48.464Z,3.03
2023-05-21T02:23:14.982Z,3.40
2023-05-21T02:25:41.572Z,3.42
2023-05-21T02:28:08.156Z,3.63
2023-05-21T02:30:35.254Z,3.10
2023-05-21T02:33:02.903Z,3.50
2023-05-21T02:35:29.620Z,3.10
2023-05-21T02:37:59.239Z,3.40
2023-05-21T02:40:26.117Z,3.33
2023-05-21T02:42:52.608Z,3.40
2023-05-21T02:45:19.157Z,3.22
2023-05-21T02:47:45.702Z,3.47
2023-05-21T02:50:14.143Z,3.72
2023-05-21T02:52:41.600Z,3.23
2023-05-21T02:55:08.688Z,3.58
2023-05-21T02:57:35.209Z,3.50
2023-05-21T03:00:01.763Z,3.70
2023-05-21T03:02:28.296Z,3.17
2023-05-21T03:04:55.629Z,3.43
2023-05-21T03:07:22.525Z,3.42
2023-05-21T03:09:49.174Z,3.20
2023-05-21T03:12:15.775Z,3.40
2023-05-21T03:14:44.217Z,3.70
2023-05-21T03:17:13.976Z,2.90
2023-05-21T03:19:41.891Z,2.92
2023-05-21T03:22:08.902Z,3.53
2023-05-21T03:24:36.897Z,3.40
2023-05-21T03:27:05.892Z,3.13
2023-05-21T03:29:32.777Z,3.13
2023-05-21T03:32:00.552Z,3.03
2023-05-21T03:34:27.156Z,3.28
2023-05-21T03:36:53.723Z,3.28
2023-05-21T03:39:20.364Z,3.05
2023-05-21T03:41:47.020Z,3.50
2023-05-21T03:44:13.600Z,3.80
2023-05-21T03:46:40.175Z,3.55
2023-05-21T03:49:06.794Z,3.63
2023-05-21T03:51:33.386Z,3.22
2023-05-21T03:54:00.259Z,2.93
2023-05-21T03:56:26.889Z,3.58
2023-05-21T03:58:53.755Z,3.10
2023-05-21T04:01:20.416Z,3.45
2023-05-21T04:03:47.199Z,3.25
2023-05-21T04:06:14.023Z,3.30
2023-05-21T04:08:40.583Z,3.40
2023-05-21T04:11:07.123Z,3.38
2023-05-21T04:13:33.681Z,3.33
2023-05-21T04:16:00.349Z,3.40
2023-05-21T04:18:26.968Z,3.10
2023-05-21T04:20:53.959Z,3.67
2023-05-21T04:23:23.745Z,3.55
2023-05-21T04:25:51.028Z,3.08
2023-05-21T04:28:21.045Z,3.47
2023-05-21T04:30:48.087Z,3.13
2023-05-21T04:33:18.071Z,3.50
2023-05-21T04:35:47.448Z,3.05
2023-05-21T04:38:14.139Z,4.03
2023-05-21T04:40:40.746Z,3.50
2023-05-21T04:43:08.122Z,3.37
2023-05-21T04:45:34.967Z,3.53
2023-05-21T04:48:02.789Z,3.42
2023-05-21T04:50:32.003Z,3.17
2023-05-21T04:52:59.614Z,3.28
2023-05-21T04:55:27.492Z,3.80
2023-05-21T04:57:54.069Z,3.50
2023-05-21T05:00:20.970Z,3.47
2023-05-21T05:02:47.601Z,3.60
2023-05-21T05:05:14.328Z,4.10
2023-05-21T05:07:41.038Z,3.33
2023-05-21T05:10:08.220Z,3.45
2023-05-21T05:12:34.760Z,3.15
2023-05-21T05:15:01.258Z,3.40
2023-05-21T05:17:27.855Z,3.25
2023-05-21T05:19:54.366Z,3.00
2023-05-21T05:22:20.926Z,2.92
2023-05-21T05:24:47.411Z,3.72
2023-05-21T05:27:13.960Z,3.55
2023-05-21T05:29:40.448Z,3.72
2023-05-21T05:32:07.574Z,3.17
2023-05-21T05:34:34.097Z,3.33
2023-05-21T05:37:02.714Z,3.92
2023-05-21T05:39:29.249Z,3.60
2023-05-21T05:41:55.819Z,3.53
2023-05-21T05:44:22.368Z,3.50
2023-05-21T05:46:48.838Z,3.78
2023-05-21T05:49:15.503Z,3.65
2023-05-21T05:51:42.166Z,3.58
2023-05-21T05:54:08.713Z,3.90
2023-05-21T05:56:35.218Z,3.53
2023-05-21T05:59:01.819Z,3.85
2023-05-21T06:01:28.320Z,3.88
2023-05-21T06:03:55.007Z,3.53
2023-05-21T06:06:21.638Z,3.90
2023-05-21T06:08:48.198Z,4.10
2023-05-21T06:11:17.242Z,3.63
2023-05-21T06:13:43.848Z,3.97
2023-05-21T06:16:10.407Z,4.15
2023-05-21T06:18:37.556Z,4.15
2023-05-21T06:21:04.068Z,3.80
2023-05-21T06:23:32.656Z,3.60
2023-05-21T06:25:59.288Z,3.63
2023-05-21T06:28:25.836Z,4.20
2023-05-21T06:30:52.396Z,4.40
2023-05-21T06:33:19.122Z,4.27
2023-05-21T06:35:45.815Z,3.97
2023-05-21T06:38:12.390Z,4.30
2023-05-21T06:40:38.903Z,4.30
2023-05-21T06:43:05.553Z,4.40
2023-05-21T06:45:32.146Z,4.40
2023-05-21T06:47:58.846Z,4.40
2023-05-21T06:50:25.457Z,4.47
2023-05-21T06:52:51.964Z,4.63
2023-05-21T06:55:18.476Z,4.72
2023-05-21T06:57:45.000Z,4.60
2023-05-21T07:00:12.317Z,4.25
2023-05-21T07:02:38.959Z,4.40
2023-05-21T07:05:05.942Z,4.63
2023-05-21T07:07:34.805Z,4.55
2023-05-21T07:10:01.472Z,4.73
2023-05-21T07:12:27.948Z,4.35
2023-05-21T07:14:54.455Z,4.60
2023-05-21T07:17:20.996Z,4.45
2023-05-21T07:19:47.513Z,4.57
2023-05-21T07:22:14.513Z,4.50
2023-05-21T07:24:41.036Z,4.80
2023-05-21T07:27:17.755Z,4.63
2023-05-21T07:29:51.036Z,4.40
2023-05-21T07:32:17.612Z,4.50
2023-05-21T07:34:44.151Z,5.20
2023-05-21T07:37:10.747Z,4.35
2023-05-21T07:39:37.822Z,4.75
2023-05-21T07:42:04.482Z,4.22
2023-05-21T07:44:31.922Z,4.55
2023-05-21T07:46:58.514Z,4.40
2023-05-21T07:49:25.136Z,4.22
2023-05-21T07:51:51.702Z,4.78
2023-05-21T07:54:19.616Z,4.25
2023-05-21T07:56:46.199Z,4.43
2023-05-21T07:59:14.875Z,4.47
2023-05-21T08:01:41.967Z,4.80
2023-05-21T08:04:08.880Z,4.60
2023-05-21T08:06:37.543Z,4.15
2023-05-21T08:09:06.078Z,4.55
2023-05-21T08:11:33.107Z,4.77
2023-05-21T08:14:00.337Z,4.43
2023-05-21T08:16:27.042Z,5.32
2023-05-21T08:18:53.639Z,4.90
2023-05-21T08:21:20.243Z,4.25
2023-05-21T08:23:46.843Z,4.70
2023-05-21T08:26:16.308Z,4.20
2023-05-21T08:28:43.006Z,4.78
2023-05-21T08:31:09.542Z,4.30
2023-05-21T08:33:38.990Z,4.65
2023-05-21T08:36:06.733Z,5.13
2023-05-21T08:38:34.014Z,4.43
2023-05-21T08:41:00.762Z,4.90
2023-05-21T08:43:28.397Z,4.70
2023-05-21T08:45:59.070Z,4.75
2023-05-21T08:48:25.876Z,5.00
2023-05-21T08:50:54.699Z,4.93
2023-05-21T08:53:28.013Z,4.57
2023-05-21T08:55:56.260Z,4.88
2023-05-21T08:58:23.204Z,4.78
2023-05-21T09:00:49.756Z,4.87
2023-05-21T09:03:16.954Z,5.10
2023-05-21T09:05:45.184Z,4.80
2023-05-21T09:08:34.517Z,4.93
2023-05-21T09:11:02.216Z,5.00
2023-05-21T09:13:31.514Z,4.43
2023-05-21T09:15:58.833Z,4.88
2023-05-21T09:18:27.573Z,4.55
2023-05-21T09:20:54.164Z,4.30
2023-05-21T09:23:20.691Z,4.20
2023-05-21T09:25:48.961Z,4.63
2023-05-21T09:28:16.979Z,4.68
2023-05-21T09:30:53.583Z,5.03
2023-05-21T09:33:27.638Z,4.65
2023-05-21T09:35:54.197Z,4.60
2023-05-21T09:38:24.688Z,4.53
2023-05-21T09:40:51.276Z,4.47
2023-05-21T09:43:18.168Z,4.50
2023-05-21T09:45:55.353Z,5.18
2023-05-21T09:48:44.064Z,4.63
2023-05-21T09:51:18.420Z,4.50
2023-05-21T09:53:52.338Z,4.50
2023-05-21T09:56:26.770Z,4.63
2023-05-21T09:59:00.198Z,4.95
2023-05-21T10:01:27.541Z,4.60
2023-05-21T10:03:56.902Z,4.63
2023-05-21T10:06:29.010Z,4.70
2023-05-21T10:08:56.947Z,4.88
2023-05-21T10:11:29.779Z,4.85
2023-05-21T10:14:14.730Z,5.07
2023-05-21T10:16:42.860Z,4.60
2023-05-21T10:19:13.116Z,5.38
2023-05-21T10:21:40.974Z,5.03
2023-05-21T10:24:11.045Z,4.72
2023-05-21T10:26:38.462Z,5.15
2023-05-21T10:29:05.071Z,4.50
2023-05-21T10:31:33.205Z,4.63
2023-05-21T10:34:00.601Z,5.28
2023-05-21T10:36:33.524Z,4.47
2023-05-21T10:39:00.587Z,4.93
2023-05-21T10:41:28.189Z,4.83
2023-05-21T10:44:06.443Z,4.78
2023-05-21T10:47:04.088Z,4.50
2023-05-21T10:49:48.066Z,4.57
2023-05-21T10:52:39.634Z,5.30
2023-05-21T10:55:27.726Z,4.80
2023-05-21T10:58:31.870Z,4.80
2023-05-21T11:00:59.978Z,4.90
2023-05-21T11:03:27.480Z,5.00
2023-05-21T11:05:56.299Z,5.70
2023-05-21T11:08:31.776Z,5.93
2023-05-21T11:10:59.045Z,5.38
2023-05-21T11:13:27.228Z,5.25
2023-05-21T11:16:00.153Z,5.18
2023-05-21T11:18:35.664Z,5.50
2023-05-21T11:21:06.384Z,5.80
2023-05-21T11:23:51.389Z,5.45
2023-05-21T11:26:26.927Z,5.97
2023-05-21T11:29:11.863Z,6.28
2023-05-21T11:31:38.756Z,5.72
2023-05-21T11:34:12.505Z,5.60
2023-05-21T11:36:40.080Z,5.50
2023-05-21T11:39:23.911Z,6.20
2023-05-21T11:42:04.312Z,5.78
2023-05-21T11:44:48.469Z,5.97
2023-05-21T11:47:19.502Z,6.03
2023-05-21T11:49:46.671Z,5.72
2023-05-21T11:52:14.244Z,6.18
2023-05-21T11:54:48.558Z,6.10
2023-05-21T11:57:21.802Z,6.28
2023-05-21T11:59:51.484Z,5.80
2023-05-21T12:02:20.140Z,6.30
2023-05-21T12:04:48.959Z,6.50
2023-05-21T12:07:17.311Z,6.00
2023-05-21T12:09:48.797Z,5.55
2023-05-21T12:12:17.216Z,6.63
2023-05-21T12:14:49.016Z,6.40
2023-05-21T12:17:18.070Z,6.88
2023-05-21T12:19:47.576Z,6.40
2023-05-21T12:22:16.558Z,6.38
2023-05-21T12:24:44.553Z,5.97
2023-05-21T12:27:13.264Z,6.70
2023-05-21T12:29:42.469Z,6.53
2023-05-21T12:32:12.499Z,7.57
2023-05-21T12:34:50.474Z,6.90
2023-05-21T12:37:22.229Z,6.67
2023-05-21T12:39:53.128Z,7.30
2023-05-21T12:42:30.602Z,6.47
2023-05-21T12:44:58.095Z,6.50
2023-05-21T12:47:28.945Z,6.95
2023-05-21T12:49:58.725Z,6.97
2023-05-21T12:52:27.205Z,7.32
2023-05-21T12:54:57.670Z,7.13
2023-05-21T12:57:43.947Z,7.38
2023-05-21T13:00:11.276Z,6.70
2023-05-21T13:02:42.856Z,7.70
2023-05-21T13:05:17.074Z,7.25
2023-05-21T13:07:46.668Z,7.13
2023-05-21T13:10:13.907Z,7.38
2023-05-21T13:12:42.221Z,7.70
2023-05-21T13:15:10.789Z,6.77
2023-05-21T13:17:37.333Z,6.75
2023-05-21T13:20:13.667Z,7.30
2023-05-21T13:22:42.711Z,6.75
2023-05-21T13:25:11.437Z,7.28
2023-05-21T13:27:39.302Z,7.30
2023-05-21T13:30:07.042Z,7.65
2023-05-21T13:32:33.945Z,7.03
2023-05-21T13:35:00.618Z,7.07
2023-05-21T13:37:27.163Z,7.45
2023-05-21T13:39:53.688Z,7.60
2023-05-21T13:42:21.137Z,7.28
2023-05-21T13:44:48.088Z,6.70
2023-05-21T13:47:14.729Z,7.57
2023-05-21T13:49:41.387Z,7.40
2023-05-21T13:52:08.920Z,6.53
2023-05-21T13:54:36.222Z,7.25
2023-05-21T13:57:03.485Z,6.90
2023-05-21T13:59:32.634Z,6.85
2023-05-21T14:02:00.272Z,6.78
2023-05-21T14:04:26.839Z,7.03
2023-05-21T14:06:53.537Z,7.32
2023-05-21T14:09:20.359Z,7.35
2023-05-21T14:11:47.084Z,6.90
2023-05-21T14:14:18.778Z,6.90
2023-05-21T14:16:47.187Z,7.53
2023-05-21T14:19:14.028Z,7.22
2023-05-21T14:21:41.076Z,7.05
2023-05-21T14:24:07.741Z,7.47
2023-05-21T14:26:36.667Z,7.20
2023-05-21T14:29:05.062Z,7.70
2023-05-21T14:31:31.668Z,7.20
2023-05-21T14:33:58.202Z,6.90
2023-05-21T14:36:24.744Z,6.68
2023-05-21T14:38:51.335Z,6.95
2023-05-21T14:41:17.815Z,6.70
2023-05-21T14:43:45.467Z,7.00
2023-05-21T14:46:12.083Z,5.20
2023-05-21T14:48:38.658Z,4.07
2023-05-21T14:51:05.223Z,4.05
2023-05-21T14:53:32.272Z,4.47
2023-05-21T14:55:58.893Z,4.60
2023-05-21T14:58:25.354Z,4.10
2023-05-21T15:00:51.842Z,4.10
2023-05-21T15:03:18.466Z,4.50
2023-05-21T15:05:44.997Z,3.90
2023-05-21T15:08:11.495Z,3.83
2023-05-21T15:10:38.257Z,4.15
2023-05-21T15:13:04.812Z,4.60
2023-05-21T15:15:31.392Z,3.90
2023-05-21T15:17:58.099Z,4.73
2023-05-21T15:20:24.713Z,4.53
2023-05-21T15:22:53.488Z,4.00
2023-05-21T15:25:23.624Z,4.22
2023-05-21T15:27:50.697Z,4.10
2023-05-21T15:30:17.428Z,4.67
2023-05-21T15:32:44.121Z,4.97
2023-05-21T15:35:10.691Z,5.05
2023-05-21T15:37:37.339Z,4.53
2023-05-21T15:40:04.572Z,4.70
2023-05-21T15:42:31.876Z,4.97
2023-05-21T15:44:58.585Z,4.28
2023-05-21T15:47:25.190Z,4.82
2023-05-21T15:49:52.966Z,4.20
2023-05-21T15:52:20.017Z,4.78
2023-05-21T15:54:47.073Z,4.73
2023-05-21T15:57:13.636Z,5.20
2023-05-21T15:59:40.199Z,4.53
2023-05-21T16:02:07.963Z,4.68
2023-05-21T16:04:34.783Z,4.25
2023-05-21T16:07:01.409Z,4.53
2023-05-21T16:09:27.928Z,4.45
2023-05-21T16:11:54.532Z,4.30
2023-05-21T16:14:21.024Z,4.38
2023-05-21T16:16:47.578Z,4.35
2023-05-21T16:19:14.185Z,3.67
2023-05-21T16:21:41.549Z,4.45
2023-05-21T16:24:08.105Z,4.43
2023-05-21T16:26:34.586Z,4.53
2023-05-21T16:29:02.266Z,4.20
2023-05-21T16:31:29.075Z,4.40
2023-05-21T16:33:55.881Z,4.28
2023-05-21T16:36:22.440Z,4.80
2023-05-21T16:38:48.921Z,4.53
2023-05-21T16:41:15.629Z,5.28
2023-05-21T16:43:42.155Z,4.60
2023-05-21T16:46:08.763Z,4.82
2023-05-21T16:48:37.372Z,4.03
2023-05-21T16:51:04.650Z,4.32
2023-05-21T16:53:31.378Z,4.40
2023-05-21T16:55:57.948Z,3.97
2023-05-21T16:58:24.548Z,4.22
2023-05-21T17:00:51.094Z,4.10
2023-05-21T17:03:18.153Z,4.07
2023-05-21T17:05:44.760Z,4.50
2023-05-21T17:08:11.364Z,4.33
2023-05-21T17:10:37.893Z,4.63
2023-05-21T17:13:17.737Z,4.88
2023-05-21T17:15:48.555Z,5.07
2023-05-21T17:18:15.323Z,4.78
2023-05-21T17:20:43.666Z,4.90
2023-05-21T17:23:11.030Z,5.13
2023-05-21T17:25:37.892Z,5.32
2023-05-21T17:28:04.876Z,5.93
2023-05-21T17:30:31.413Z,5.38
2023-05-21T17:32:58.384Z,5.00
2023-05-21T17:35:25.110Z,5.85
2023-05-21T17:37:53.272Z,5.53
2023-05-21T17:40:21.360Z,5.57
2023-05-21T17:42:48.034Z,5.70
2023-05-21T17:45:14.623Z,6.17
2023-05-21T17:47:41.180Z,6.43
2023-05-21T17:50:08.609Z,5.88
2023-05-21T17:52:35.092Z,6.80
2023-05-21T17:55:01.889Z,6.00
2023-05-21T17:57:28.611Z,6.50
2023-05-21T17:59:55.586Z,7.85
2023-05-21T18:02:23.513Z,6.55
2023-05-21T18:04:50.090Z,6.38
2023-05-21T18:07:16.753Z,6.68
2023-05-21T18:09:43.268Z,6.73
2023-05-21T18:12:09.803Z,6.82
2023-05-21T18:14:36.442Z,7.82
2023-05-21T18:17:03.053Z,7.15
2023-05-21T18:19:31.781Z,6.88
2023-05-21T18:21:58.365Z,7.17
2023-05-21T18:24:25.655Z,7.30
2023-05-21T18:26:52.195Z,7.70
2023-05-21T18:29:18.769Z,7.47
2023-05-21T18:31:45.505Z,7.28
2023-05-21T18:34:13.042Z,6.93
2023-05-21T18:36:40.172Z,6.97
2023-05-21T18:39:07.954Z,7.65
2023-05-21T18:41:34.663Z,7.32
2023-05-21T18:44:01.913Z,7.47
2023-05-21T18:46:28.999Z,7.53
2023-05-21T18:48:56.373Z,8.23
2023-05-21T18:51:22.950Z,8.00
2023-05-21T18:53:49.553Z,8.02
2023-05-21T18:56:17.084Z,8.73
2023-05-21T18:58:43.595Z,8.53
2023-05-21T19:01:10.453Z,8.30
2023-05-21T19:03:38.062Z,9.25
2023-05-21T19:06:04.743Z,9.02
2023-05-21T19:08:31.257Z,8.90
2023-05-21T19:10:57.835Z,9.17
2023-05-21T19:13:24.465Z,8.98
2023-05-21T19:15:51.265Z,9.60
2023-05-21T19:18:17.860Z,9.20
2023-05-21T19:20:44.385Z,10.23
2023-05-21T19:23:10.940Z,9.43
2023-05-21T19:25:38.298Z,9.60
2023-05-21T19:28:05.008Z,10.23
2023-05-21T19:30:33.546Z,10.30
2023-05-21T19:33:00.246Z,10.00
2023-05-21T19:35:26.781Z,8.83
2023-05-21T19:37:54.800Z,9.43
2023-05-21T19:40:23.107Z,10.30
2023-05-21T19:42:49.641Z,9.15
2023-05-21T19:45:16.174Z,9.80
2023-05-21T19:47:43.337Z,9.60
2023-05-21T19:50:10.904Z,9.40
2023-05-21T19:52:38.699Z,9.60
2023-05-21T19:55:08.563Z,9.27
2023-05-21T19:57:35.067Z,9.57
2023-05-21T20:00:01.663Z,9.63
2023-05-21T20:02:31.480Z,9.55
2023-05-21T20:04:59.027Z,9.38
2023-05-21T20:07:25.812Z,8.68
2023-05-21T20:09:52.462Z,9.85
2023-05-21T20:12:19.290Z,9.10
2023-05-21T20:14:46.891Z,9.10
2023-05-21T20:17:14.395Z,9.30
2023-05-21T20:19:41.103Z,9.63
2023-05-21T20:22:07.683Z,9.65
2023-05-21T20:24:34.258Z,8.87
2023-05-21T20:27:01.683Z,9.15
2023-05-21T20:29:29.110Z,9.07
2023-05-21T20:31:55.640Z,8.95
2023-05-21T20:34:22.221Z,9.25
2023-05-21T20:36:49.290Z,9.40
2023-05-21T20:39:15.984Z,8.48
2023-05-21T20:41:44.547Z,8.90
2023-05-21T20:44:11.921Z,9.68
2023-05-21T20:46:39.008Z,9.00
2023-05-21T20:49:06.226Z,9.07
2023-05-21T20:51:33.286Z,9.82
2023-05-21T20:53:59.830Z,9.57
2023-05-21T20:56:40.732Z,9.95
2023-05-21T20:59:10.464Z,9.30
2023-05-21T21:01:37.958Z,9.40
2023-05-21T21:04:05.050Z,9.52
2023-05-21T21:06:31.927Z,9.38
2023-05-21T21:08:58.766Z,9.63
2023-05-21T21:11:26.643Z,10.15
2023-05-21T21:13:53.167Z,10.07
2023-05-21T21:16:19.766Z,9.45
2023-05-21T21:18:47.023Z,9.60
2023-05-21T21:21:13.897Z,9.10
2023-05-21T21:23:40.546Z,9.65
2023-05-21T21:26:07.191Z,9.70
2023-05-21T21:28:33.945Z,9.52
2023-05-21T21:31:00.689Z,10.13
2023-05-21T21:33:28.400Z,10.55
2023-05-21T21:35:55.177Z,10.45
2023-05-21T21:38:21.779Z,9.50
2023-05-21T21:40:48.422Z,10.10
2023-05-21T21:43:15.015Z,9.27
2023-05-21T21:45:41.645Z,9.85
2023-05-21T21:48:08.297Z,9.68
2023-05-21T21:50:34.892Z,9.93
2023-05-21T21:53:03.567Z,9.82
2023-05-21T21:55:30.315Z,10.23
2023-05-21T21:57:56.928Z,9.93
2023-05-21T22:00:26.599Z,9.98
2023-05-21T22:02:53.930Z,10.47
2023-05-21T22:05:20.935Z,10.38
2023-05-21T22:07:47.851Z,10.63
2023-05-21T22:10:18.117Z,10.80
2023-05-21T22:12:45.948Z,10.93
2023-05-21T22:15:19.740Z,11.03
2023-05-21T22:17:48.349Z,11.60
2023-05-21T22:20:15.109Z,9.93
2023-05-21T22:22:41.621Z,11.02
2023-05-21T22:25:08.531Z,11.23
2023-05-21T22:27:35.026Z,10.70
2023-05-21T22:30:01.626Z,10.95
2023-05-21T22:32:28.110Z,11.25
2023-05-21T22:34:54.655Z,11.60
2023-05-21T22:37:21.266Z,11.65
2023-05-21T22:39:47.789Z,11.30
2023-05-21T22:42:14.474Z,11.13
2023-05-21T22:44:41.006Z,11.40
2023-05-21T22:47:09.460Z,11.43
2023-05-21T22:49:38.072Z,11.57
2023-05-21T22:52:06.233Z,11.93
2023-05-21T22:54:33.029Z,11.93
2023-05-21T22:57:01.176Z,12.38
2023-05-21T22:59:32.267Z,11.57
2023-05-21T23:01:59.183Z,12.90
2023-05-21T23:04:42.745Z,11.37
2023-05-21T23:07:10.546Z,12.25
2023-05-21T23:09:37.075Z,11.63
2023-05-21T23:12:04.062Z,12.05
2023-05-21T23:14:30.791Z,12.32
2023-05-21T23:17:02.048Z,11.73
2023-05-21T23:19:29.399Z,11.90
2023-05-21T23:21:56.366Z,12.63
2023-05-21T23:24:23.144Z,12.35
2023-05-21T23:26:49.826Z,12.85
2023-05-21T23:29:16.614Z,11.53
2023-05-21T23:31:43.597Z,12.38
2023-05-21T23:34:10.291Z,12.20
2023-05-21T23:36:36.798Z,12.15
2023-05-21T23:39:03.546Z,12.25
2023-05-21T23:41:30.143Z,12.73
2023-05-21T23:43:56.659Z,11.93
2023-05-21T23:46:23.293Z,12.75
2023-05-21T23:48:49.931Z,13.27
2023-05-21T23:51:18.258Z,12.82
2023-05-21T23:53:45.161Z,12.93
2023-05-21T23:56:11.621Z,13.60
2023-05-21T23:58:38.114Z,13.85
